Latest Coastal Weather Observations for Kowanyama

IDQ60701

Issued at 8:22 am EST Sunday 23 February 2020 (issued every 10 minutes, with the page automatically refreshed every 10 minutes)

About coastal observations | Map of coastal stations | Coastal observations for QLD | Marine services | Other Formats
Station Details ID: 029038 Name: KOWANYAMA AIRPORT Lat: -15.48 Lon: 141.75 Height: 9.6 m
Data from the previous 72 hours. | See also: Recent months at Kowanyama
Date/Time
EST
Wind Sea
Height
m
Swell Vis
km
Cloud Weather Temp
°C
Press
hPa
Rain since
9am
mm
Dir  Spd
kts
Gust
kts
Height
m
Period
s
Dir
23/08:00am ENE 6 9 - - - - 7 - - 25.8 1005.2 7.0
23/07:30am E 7 11 - - - - 10 - - 25.8 1004.8 6.2
23/07:00am E 7 10 - - - - 10 - - 25.7 1004.5 5.8
23/06:30am ENE 5 7 - - - - 10 - - 25.7 1004.5 5.2
23/06:10am ENE 7 9 - - - - 10 - - 25.7 1004.6 4.8
23/06:00am NE 7 10 - - - - 5 - Showers 25.8 1004.6 4.4
23/05:51am NE 7 11 - - - - 5 - - 25.8 1004.4 3.4
23/05:30am E 9 13 - - - - 10 - - 26.3 1004.0 2.0
23/05:00am E 7 9 - - - - 10 - - 26.2 1004.0 1.6
23/04:30am E 7 10 - - - - 10 - - 26.1 1004.0 1.6
23/04:00am ENE 7 10 - - - - 10 - - 26.0 1004.0 1.6
23/03:30am E 6 11 - - - - 10 - - 25.9 1003.8 1.6
23/03:00am E 6 9 - - - - 10 - Rain 26.0 1004.1 1.4
23/02:30am E 7 10 - - - - 10 - - 26.0 1004.4 1.4
23/02:00am E 7 11 - - - - 10 - - 26.3 1004.7 1.2
23/01:30am E 7 10 - - - - 10 - - 26.3 1005.1 1.2
23/01:00am E 6 9 - - - - 10 - - 26.4 1005.5 1.2
23/12:30am E 5 9 - - - - 10 - - 26.5 1006.0 1.2
23/12:00am E 6 11 - - - - 10 - Showers 26.5 1006.4 1.2
 
Date/Time
EST
Wind Sea
Height
m
Swell Vis
km
Cloud Weather Temp
°C
Press
hPa
Rain since
9am
mm
Dir  Spd
kts
Gust
kts
Height
m
Period
s
Dir
22/11:30pm E 6 9 - - - - 10 - - 26.6 1006.6 1.2
22/11:00pm E 5 7 - - - - 10 - - 26.5 1006.8 1.2
22/10:30pm ENE 4 5 - - - - 10 - - 26.5 1006.8 1.2
22/10:00pm E 4 7 - - - - 10 - - 26.5 1006.2 1.2
22/09:30pm NE 5 7 - - - - 10 - - 26.5 1006.0 1.2
22/09:00pm ENE 5 7 - - - - 10 - - 26.4 1005.6 1.2
22/08:30pm E 4 5 - - - - 10 - - 26.4 1005.6 1.2
22/08:00pm E 5 7 - - - - 10 - - 26.3 1005.4 1.2
22/07:30pm E 6 8 - - - - 10 - - 26.5 1005.2 1.2
22/07:00pm ESE 4 7 - - - - 10 - - 27.0 1004.8 1.2
22/06:30pm E 5 7 - - - - 10 - - 27.0 1004.8 1.2
22/06:00pm E 6 10 - - - - 10 - Showers 27.8 1004.3 1.0
22/05:30pm ESE 6 7 - - - - 10 - - 29.2 1004.0 0.4
22/05:00pm E 5 7 - - - - 10 - - 29.5 1003.9 0.4
22/04:30pm ENE 6 10 - - - - 10 - - 29.8 1003.7 0.4
22/04:00pm NE 5 8 - - - - 10 - - 29.3 1003.8 0.4
22/03:30pm ENE 5 7 - - - - 10 - - 28.9 1003.9 0.4
22/03:00pm ENE 5 8 - - - - 10 - Rain 29.8 1004.0 0.2
22/02:30pm E 7 11 - - - - 10 - - 31.6 1004.2 0.2
22/02:00pm ENE 7 12 - - - - 10 - - 31.5 1004.7 0.2
22/01:30pm ENE 8 11 - - - - 10 - - 32.0 1005.4 0.2
22/01:00pm NE 9 12 - - - - 10 - - 31.4 1005.8 0.2
22/12:30pm NE 7 15 - - - - 10 - - 31.6 1006.2 0.2
22/12:00pm ENE 7 11 - - - - 10 - - 30.5 1006.8 0.2
22/11:30am ENE 7 11 - - - - 10 - - 29.8 1007.2 0.2
22/11:00am ENE 6 8 - - - - 10 - - 29.3 1007.3 0.2
22/10:30am ENE 7 11 - - - - 10 - - 29.2 1007.3 0.2
22/10:00am ENE 8 12 - - - - 10 - - 29.4 1007.4 0.2
22/09:30am ENE 7 12 - - - - 10 - - 28.2 1007.5 0.0
22/09:00am E 8 13 - - - - 10 - - 27.2 1007.7 5.4
22/08:30am E 7 11 - - - - 10 - - 26.6 1007.6 5.4
22/08:00am E 5 7 - - - - 10 - - 26.2 1007.3 5.4
22/07:30am E 5 7 - - - - 10 - - 25.9 1006.9 5.4
22/07:00am E 4 7 - - - - 10 - - 25.7 1006.5 5.4
22/06:30am E 5 6 - - - - 10 - - 25.6 1006.1 5.4
22/06:00am ENE 6 9 - - - - 10 - Rain 25.6 1005.9 5.4
22/05:30am E 6 8 - - - - 10 - - 25.7 1005.8 5.2
22/05:00am E 5 6 - - - - 10 - - 25.8 1005.7 4.8
22/04:30am E 5 8 - - - - 10 - - 25.8 1005.6 4.8
22/04:00am E 5 8 - - - - 10 - - 25.9 1005.7 4.6
22/03:30am E 4 6 - - - - 10 - - 26.1 1005.9 4.6
22/03:00am ESE 3 5 - - - - 10 - Rain 26.1 1006.0 4.4
22/02:30am ESE 5 6 - - - - 10 - - 26.1 1006.2 4.4
22/02:00am ESE 3 5 - - - - 10 - - 26.1 1006.5 4.4
22/01:30am ESE 5 6 - - - - 10 - - 26.1 1006.8 4.4
22/01:00am ESE 3 5 - - - - 10 - - 26.1 1007.2 4.4
22/12:30am ESE 5 7 - - - - 10 - - 26.2 1007.6 4.4
22/12:00am ESE 4 5 - - - - 10 - - 26.1 1008.0 4.4
 
Date/Time
EST
Wind Sea
Height
m
Swell Vis
km
Cloud Weather Temp
°C
Press
hPa
Rain since
9am
mm
Dir  Spd
kts
Gust
kts
Height
m
Period
s
Dir
21/11:30pm ESE 5 6 - - - - 10 - - 26.1 1008.2 4.4
21/11:00pm ESE 5 7 - - - - 10 - - 26.1 1008.4 4.4
21/10:30pm SE 6 7 - - - - 10 - - 26.3 1008.1 4.4
21/10:00pm SE 5 6 - - - - 10 - - 26.4 1008.0 4.4
21/09:30pm SSE 5 6 - - - - 10 - - 26.3 1008.0 4.2
21/09:00pm S 2 4 - - - - 10 - Rain 26.2 1007.9 3.6
21/08:30pm CALM 0 0 - - - - 10 - - 26.1 1007.4 3.2
21/08:00pm WSW 3 4 - - - - 10 - - 26.0 1007.0 2.6
21/07:30pm NNW 3 5 - - - - 10 - - 26.1 1006.3 1.6
21/07:00pm N 3 5 - - - - 10 - - 26.2 1005.8 1.2
21/06:30pm N 6 9 - - - - 10 - - 26.4 1005.4 1.0
21/06:00pm N 9 15 - - - - 10 - Rain 26.8 1005.0 1.0
21/05:30pm N 9 21 - - - - 10 - - 28.7 1004.4 1.0
21/05:00pm NE 7 11 - - - - 10 - - 31.2 1003.7 1.0
21/04:30pm NE 3 6 - - - - 10 - - 32.4 1003.2 1.0
21/04:00pm N 3 5 - - - - 10 - - 31.0 1003.5 1.0
21/03:30pm NNW 2 5 - - - - 10 - - 31.1 1003.9 1.0
21/03:00pm N 2 4 - - - - 10 - Rain 30.5 1004.1 1.0
21/02:30pm ENE 2 4 - - - - 10 - - 29.0 1004.5 1.0
21/02:25pm E 4 6 - - - - 10 - - 28.8 1004.7 1.0
21/02:11pm ENE 7 11 - - - - 5 - - 28.5 1004.8 0.8
21/02:00pm E 9 16 - - - - 10 - - 30.8 1004.8 0.2
21/01:30pm NE 6 9 - - - - 10 - - 32.7 1005.2 0.2
21/01:00pm NE 7 11 - - - - 10 - - 32.2 1005.8 0.2
21/12:30pm ENE 8 12 - - - - 10 - - 31.6 1006.3 0.2
21/12:00pm E 8 13 - - - - 10 - - 30.8 1006.8 0.2
21/11:30am E 7 10 - - - - 10 - - 30.0 1007.6 0.2
21/11:00am E 6 9 - - - - 10 - - 29.7 1007.8 0.2
21/10:30am E 5 9 - - - - 10 - - 29.5 1008.0 0.2
21/10:00am ESE 6 9 - - - - 10 - - 28.7 1008.2 0.0
21/09:30am E 7 10 - - - - 10 - - 27.5 1008.3 0.0
21/09:00am E 6 10 - - - - 10 - - 27.1 1008.2 13.6
21/08:30am E 5 7 - - - - 10 - - 26.4 1007.9 13.6
21/08:00am ENE 4 6 - - - - 10 - - 25.9 1007.6 13.6
21/07:30am E 4 6 - - - - 10 - - 25.7 1007.2 13.6
21/07:00am E 4 5 - - - - 10 - - 25.4 1006.8 13.6
21/06:30am E 5 6 - - - - 10 - - 25.3 1006.5 13.6
21/06:00am ENE 4 6 - - - - 10 - - 25.3 1006.2 13.6
21/05:30am E 4 7 - - - - 10 - - 25.5 1005.8 13.6
21/05:00am E 4 5 - - - - 10 - - 25.5 1005.6 13.6
21/04:30am ESE 4 5 - - - - 10 - - 25.5 1005.6 13.6
21/04:00am ESE 4 5 - - - - 10 - - 25.4 1005.5 13.6
21/03:30am ESE 4 5 - - - - 10 - - 25.4 1005.5 13.6
21/03:00am ESE 4 5 - - - - 10 - - 25.4 1005.6 13.6
21/02:30am SE 5 6 - - - - 10 - - 25.4 1005.9 13.6
21/02:00am SE 4 5 - - - - 10 - - 25.4 1006.6 13.6
21/01:30am ESE 5 6 - - - - 10 - - 25.4 1007.1 13.4
21/01:00am ESE 4 6 - - - - 10 - - 25.5 1007.5 13.4
21/12:30am ESE 4 6 - - - - 10 - - 25.5 1007.6 13.2
21/12:00am ESE 6 9 - - - - 10 - Rain 25.6 1007.6 12.8
 
Date/Time
EST
Wind Sea
Height
m
Swell Vis
km
Cloud Weather Temp
°C
Press
hPa
Rain since
9am
mm
Dir  Spd
kts
Gust
kts
Height
m
Period
s
Dir
20/11:30pm SE 7 8 - - - - 10 - - 25.9 1007.4 12.4
20/11:00pm ESE 4 5 - - - - 10 - - 25.8 1007.6 11.8
20/10:30pm ESE 4 4 - - - - 10 - - 25.7 1007.9 10.6
20/10:00pm ENE 1 4 - - - - 10 - - 25.6 1007.9 9.4
20/09:30pm CALM 0 1 - - - - 10 - - 25.7 1008.0 8.2
20/09:00pm E 4 6 - - - - 10 - Rain 25.9 1007.6 7.0
20/08:30pm E 3 6 - - - - 10 - - 25.7 1007.3 5.4
20/08:00pm ESE 5 8 - - - - 10 - - 25.9 1007.0 4.0
20/07:30pm E 4 5 - - - - 10 - - 25.8 1006.8 2.6
20/07:00pm NE 3 5 - - - - 10 - - 25.8 1006.4 1.2
20/06:30pm ENE 6 9 - - - - 10 - - 26.6 1005.8 0.2
20/06:00pm SE 7 9 - - - - 10 - Showers 27.2 1005.2 0.2
20/05:30pm SSE 7 9 - - - - 10 - - 28.5 1004.2 0.2
20/05:00pm S 7 9 - - - - 10 - - 29.5 1003.4 0.2
20/04:30pm WNW 9 12 - - - - 10 - - 29.7 1003.1 0.2
20/04:00pm W 11 16 - - - - 10 - - 29.2 1003.2 0.2
20/03:30pm SSW 3 4 - - - - 10 - - 33.4 1003.4 0.2
20/03:00pm W 7 9 - - - - 10 - Rain 30.8 1003.7 0.2
20/02:30pm N 5 7 - - - - 10 - - 32.4 1004.5 0.2
20/02:00pm ENE 4 6 - - - - 10 - - 33.6 1004.6 0.2
20/01:30pm N 5 8 - - - - 10 - - 33.4 1005.0 0.2
20/01:00pm NE 7 11 - - - - 10 - - 32.3 1005.4 0.2
20/12:30pm NNE 6 11 - - - - 10 - - 32.1 1006.1 0.2
20/12:00pm NE 5 7 - - - - 10 - - 31.5 1006.5 0.2
20/11:30am NNE 5 7 - - - - 10 - - 30.9 1006.9 0.2
20/11:00am ENE 4 8 - - - - 10 - - 30.4 1007.1 0.2
20/10:30am ENE 6 9 - - - - 10 - - 29.9 1007.1 0.2
20/10:00am ENE 5 8 - - - - 10 - - 29.6 1007.1 0.2
20/09:30am ESE 6 8 - - - - 10 - - 29.3 1007.2 0.0
20/09:00am E 6 9 - - - - 10 - - 28.3 1007.1 26.8
20/08:30am ESE 6 8 - - - - 10 - - 27.9 1007.0 26.8

Other formats

Comma delimited format used in spreadsheet applications
http://www.bom.gov.au/fwo/IDQ60701/IDQ60701.94268.axf

JavaScript Object Notation format (JSON) in row-major order
http://www.bom.gov.au/fwo/IDQ60701/IDQ60701.94268.json

Data quality

Most of these data are generated automatically and are frequently updated. Quality checks on data are not normally performed. It is possible for incorrect values to appear. Refer to information at About Latest Weather Observations and please check the disclaimer before using these data.